Time;durP1;ratioP1;P1;durP2;ratioP2;P2;SDS_P1;SDS_P2;PMS_P1;PMS_P2;Temp;Humidity;BMP_temperature;BMP_pressure;BME280_temperature;BME280_humidity;BME280_pressure;Samples;Min_cycle;Max_cycle;Signal;HPM_P1;HPM_P2
2021/09/26 00:01:14;;;;;;;1.03;0.67;;;17.50;99.90;;;;;;5087480;28;20552;-83
2021/09/26 00:03:39;;;;;;;0.70;0.70;;;17.50;99.90;;;;;;5086274;28;20204;-83
2021/09/26 00:06:05;;;;;;;1.20;1.10;;;17.50;99.90;;;;;;5088626;28;20653;-83
2021/09/26 00:08:30;;;;;;;0.73;0.23;;;17.60;99.90;;;;;;5086916;28;20186;-82
2021/09/26 00:10:56;;;;;;;0.73;0.73;;;17.70;99.90;;;;;;5086962;28;20189;-83
2021/09/26 00:13:22;;;;;;;0.50;0.50;;;17.60;99.90;;;;;;5087727;28;20232;-83
2021/09/26 00:15:47;;;;;;;0.50;0.50;;;17.50;99.90;;;;;;5095415;28;20211;-83
2021/09/26 00:18:13;;;;;;;0.73;0.73;;;17.30;99.90;;;;;;5087840;28;20366;-83
2021/09/26 00:20:39;;;;;;;0.83;0.50;;;17.50;99.90;;;;;;5083819;28;20233;-82
2021/09/26 00:23:05;;;;;;;0.93;0.73;;;17.60;99.90;;;;;;5090205;28;20630;-83
2021/09/26 00:25:30;;;;;;;0.37;0.37;;;17.70;99.90;;;;;;5083142;28;20185;-82
2021/09/26 00:27:56;;;;;;;0.30;0.30;;;17.70;99.90;;;;;;5090567;28;20206;-84
2021/09/26 00:30:22;;;;;;;0.37;0.30;;;17.60;99.90;;;;;;5090157;28;20176;-84
2021/09/26 00:32:48;;;;;;;0.50;0.50;;;17.60;99.90;;;;;;5091273;28;20634;-83
2021/09/26 00:35:17;;;;;;;1.57;0.40;;;17.60;99.90;;;;;;5093576;28;20258;-83
2021/09/26 00:37:42;;;;;;;0.97;0.37;;;17.50;99.90;;;;;;5093673;28;20233;-83
2021/09/26 00:40:09;;;;;;;0.50;0.50;;;17.30;99.90;;;;;;5084291;28;20182;-83
2021/09/26 00:42:35;;;;;;;0.53;0.50;;;17.10;99.90;;;;;;5093998;28;20311;-83
2021/09/26 00:45:03;;;;;;;0.40;0.40;;;16.90;99.90;;;;;;5095129;28;20658;-82
2021/09/26 00:47:28;;;;;;;0.60;0.60;;;16.80;99.90;;;;;;5091032;28;20207;-83
2021/09/26 00:49:54;;;;;;;0.27;0.27;;;16.90;99.90;;;;;;5085889;28;20176;-82
2021/09/26 00:52:21;;;;;;;0.43;0.43;;;16.90;99.90;;;;;;5095137;28;20214;-82
2021/09/26 00:54:47;;;;;;;0.50;0.20;;;16.90;99.90;;;;;;5085188;28;21294;-83
2021/09/26 00:57:13;;;;;;;0.40;0.30;;;16.90;99.90;;;;;;5089199;28;20584;-82
2021/09/26 00:59:39;;;;;;;0.20;0.20;;;16.80;99.90;;;;;;5083383;28;20181;-83
2021/09/26 01:02:05;;;;;;;0.73;0.40;;;16.80;99.90;;;;;;5084201;28;20205;-83
2021/09/26 01:04:31;;;;;;;0.20;0.20;;;16.70;99.90;;;;;;5094910;28;20183;-83
2021/09/26 01:07:12;;;;;;;0.40;0.40;;;16.50;99.90;;;;;;5086047;28;20180;-83
2021/09/26 01:09:49;;;;;;;0.30;0.30;;;16.30;99.90;;;;;;5090177;28;20248;-83
2021/09/26 01:12:33;;;;;;;0.87;0.87;;;16.20;99.90;;;;;;5082329;28;20205;-82
2021/09/26 01:15:15;;;;;;;1.97;0.40;;;16.30;99.90;;;;;;5094727;28;20203;-83
2021/09/26 01:17:49;;;;;;;1.07;0.60;;;16.30;99.90;;;;;;5078868;28;20177;-83
2021/09/26 01:20:42;;;;;;;0.20;0.20;;;16.30;99.90;;;;;;5078860;28;20180;-82
2021/09/26 01:23:08;;;;;;;0.93;0.53;;;16.40;99.90;;;;;;5079974;28;20278;-84
2021/09/26 01:25:43;;;;;;;0.37;0.37;;;16.40;99.90;;;;;;5088047;28;20282;-84
2021/09/26 01:28:50;;;;;;;0.67;0.40;;;16.40;99.90;;;;;;5088066;28;20191;-82
2021/09/26 01:31:27;;;;;;;0.37;0.37;;;16.40;99.90;;;;;;5012203;28;20201;-83
2021/09/26 01:33:58;;;;;;;0.30;0.30;;;16.40;99.90;;;;;;5088087;28;20196;-83
2021/09/26 01:36:32;;;;;;;0.33;0.33;;;16.40;99.90;;;;;;5090421;28;20688;-82
2021/09/26 01:39:17;;;;;;;0.53;0.40;;;16.40;99.90;;;;;;5092367;28;20180;-83
2021/09/26 01:42:07;;;;;;;0.40;0.40;;;16.30;99.90;;;;;;5083506;28;20207;-82
2021/09/26 01:44:38;;;;;;;0.20;0.20;;;16.40;99.90;;;;;;5085207;28;20641;-83
2021/09/26 01:47:06;;;;;;;0.27;0.27;;;16.20;99.90;;;;;;5088045;28;20186;-83
2021/09/26 01:49:37;;;;;;;0.73;0.60;;;16.30;99.90;;;;;;5091929;28;20211;-83
2021/09/26 01:52:09;;;;;;;0.40;0.37;;;16.20;99.90;;;;;;5079371;28;20564;-83
2021/09/26 01:54:35;;;;;;;0.87;0.60;;;16.20;99.90;;;;;;5093061;28;20203;-83
2021/09/26 01:57:02;;;;;;;0.60;0.60;;;16.00;99.90;;;;;;5095479;28;20181;-83
2021/09/26 01:59:28;;;;;;;0.27;0.27;;;15.90;99.90;;;;;;5084758;28;20547;-83
2021/09/26 02:01:56;;;;;;;1.33;0.50;;;15.80;99.90;;;;;;5094392;28;20283;-83
2021/09/26 02:04:24;;;;;;;0.30;0.30;;;15.70;99.90;;;;;;5089961;28;20260;-82
2021/09/26 02:06:50;;;;;;;0.40;0.40;;;15.70;99.90;;;;;;5087615;28;20180;-83
2021/09/26 02:09:17;;;;;;;0.43;0.43;;;15.60;99.90;;;;;;5092447;28;20176;-83
2021/09/26 02:11:43;;;;;;;1.40;0.67;;;15.50;99.90;;;;;;5088763;28;20827;-83
2021/09/26 02:14:09;;;;;;;0.53;0.27;;;15.50;99.90;;;;;;5090532;28;20221;-82
2021/09/26 02:16:36;;;;;;;0.20;0.20;;;15.50;99.90;;;;;;5099609;28;20567;-83
2021/09/26 02:19:03;;;;;;;0.73;0.57;;;15.50;99.90;;;;;;5090102;28;20175;-82
2021/09/26 02:21:31;;;;;;;0.23;0.23;;;15.30;99.90;;;;;;5089143;28;20178;-84
2021/09/26 02:23:58;;;;;;;0.87;0.40;;;15.30;99.90;;;;;;5088169;28;20560;-82
2021/09/26 02:26:25;;;;;;;3.50;1.07;;;15.20;99.90;;;;;;5086446;28;20703;-83
2021/09/26 02:28:51;;;;;;;0.33;0.33;;;15.20;99.90;;;;;;5091226;28;20225;-83
2021/09/26 02:31:17;;;;;;;0.20;0.20;;;15.20;99.90;;;;;;5093435;28;20182;-83
2021/09/26 02:33:45;;;;;;;0.40;0.40;;;15.30;99.90;;;;;;5086127;28;20207;-83
2021/09/26 02:36:13;;;;;;;0.23;0.23;;;15.30;99.90;;;;;;5091778;28;20214;-83
2021/09/26 02:38:39;;;;;;;0.20;0.20;;;15.30;99.90;;;;;;5086186;28;20179;-83
2021/09/26 02:41:14;;;;;;;0.60;0.60;;;15.20;99.90;;;;;;5093073;28;20177;-83
2021/09/26 02:44:03;;;;;;;0.20;0.20;;;15.10;99.90;;;;;;5093874;28;20260;-83
2021/09/26 02:46:38;;;;;;;0.73;0.70;;;15.10;99.90;;;;;;5086891;28;20181;-83
2021/09/26 02:49:05;;;;;;;0.20;0.20;;;15.10;99.90;;;;;;5087021;28;20179;-83
2021/09/26 02:51:32;;;;;;;0.30;0.30;;;15.10;99.90;;;;;;5085604;28;20188;-83
2021/09/26 02:54:00;;;;;;;1.33;0.40;;;15.10;99.90;;;;;;5088045;28;20295;-83
2021/09/26 02:56:26;;;;;;;0.20;0.20;;;15.00;99.90;;;;;;5091740;28;20678;-82
2021/09/26 02:58:54;;;;;;;0.60;0.53;;;15.10;99.90;;;;;;5086731;28;20183;-83
2021/09/26 03:01:23;;;;;;;0.33;0.33;;;15.20;99.90;;;;;;5089655;28;20564;-83
2021/09/26 03:03:48;;;;;;;0.47;0.47;;;15.20;99.90;;;;;;5078313;28;20533;-82
2021/09/26 03:06:14;;;;;;;0.67;0.57;;;15.20;99.90;;;;;;5113495;28;20193;-83
2021/09/26 03:08:39;;;;;;;0.83;0.67;;;15.10;99.90;;;;;;5084966;28;20214;-83
2021/09/26 03:11:05;;;;;;;0.40;0.40;;;15.10;99.90;;;;;;5089172;28;20196;-82
2021/09/26 03:13:30;;;;;;;0.50;0.50;;;15.20;99.90;;;;;;5090237;28;20599;-83
2021/09/26 03:15:57;;;;;;;0.30;0.30;;;15.20;99.90;;;;;;5090292;28;20206;-83
2021/09/26 03:18:23;;;;;;;0.53;0.40;;;15.30;99.90;;;;;;5085131;28;20706;-83
2021/09/26 03:20:49;;;;;;;0.33;0.33;;;15.40;99.90;;;;;;5088724;28;20296;-83
2021/09/26 03:23:15;;;;;;;0.43;0.43;;;15.40;99.90;;;;;;5089658;28;20266;-82
2021/09/26 03:25:40;;;;;;;1.10;0.30;;;15.40;99.90;;;;;;5086421;28;20593;-83
2021/09/26 03:28:06;;;;;;;0.30;0.30;;;15.40;99.90;;;;;;5108334;28;20203;-82
2021/09/26 03:30:32;;;;;;;3.77;0.63;;;15.20;99.90;;;;;;5083066;28;20247;-82
2021/09/26 03:32:58;;;;;;;0.20;0.20;;;15.10;99.90;;;;;;5085001;28;20206;-83
2021/09/26 03:35:24;;;;;;;0.20;0.20;;;14.90;99.90;;;;;;5089789;28;20205;-83
2021/09/26 03:37:50;;;;;;;0.50;0.50;;;14.80;99.90;;;;;;5090254;28;20188;-83
2021/09/26 03:40:16;;;;;;;0.50;0.50;;;14.70;99.90;;;;;;5082367;28;20203;-83
2021/09/26 03:42:43;;;;;;;0.33;0.33;;;14.70;99.90;;;;;;5086118;28;20207;-83
2021/09/26 03:45:10;;;;;;;0.40;0.37;;;14.60;99.90;;;;;;5093947;28;20197;-82
2021/09/26 03:47:36;;;;;;;0.40;0.40;;;14.60;99.90;;;;;;5082072;28;20330;-82
2021/09/26 03:50:04;;;;;;;1.27;0.43;;;14.70;99.90;;;;;;5087644;28;20209;-83
2021/09/26 03:52:31;;;;;;;0.37;0.37;;;14.80;99.90;;;;;;5084683;28;20229;-83
2021/09/26 03:54:57;;;;;;;0.27;0.27;;;14.80;99.90;;;;;;5095443;28;20198;-83
2021/09/26 03:57:23;;;;;;;0.30;0.30;;;14.80;99.90;;;;;;5093112;28;20309;-82
2021/09/26 03:59:48;;;;;;;0.63;0.30;;;14.70;99.90;;;;;;5087690;28;20178;-83
2021/09/26 04:02:14;;;;;;;1.30;0.63;;;14.70;99.90;;;;;;5087554;28;20664;-83
2021/09/26 04:04:40;;;;;;;0.37;0.37;;;14.70;99.90;;;;;;5097831;28;20269;-83
2021/09/26 04:07:05;;;;;;;0.20;0.20;;;14.60;99.90;;;;;;5087627;28;20186;-83
2021/09/26 04:09:31;;;;;;;0.47;0.47;;;14.60;99.90;;;;;;5091983;28;20602;-82
2021/09/26 04:11:56;;;;;;;0.23;0.23;;;14.70;99.90;;;;;;5087585;28;20204;-82
2021/09/26 04:14:22;;;;;;;0.60;0.60;;;14.80;99.90;;;;;;5088795;28;20189;-84
2021/09/26 04:16:49;;;;;;;0.53;0.50;;;14.90;99.90;;;;;;5086333;28;20264;-82
2021/09/26 04:19:16;;;;;;;0.20;0.20;;;15.00;99.90;;;;;;5087482;28;20186;-82
2021/09/26 04:21:43;;;;;;;0.63;0.47;;;15.10;99.90;;;;;;5087457;28;20197;-83
2021/09/26 04:24:10;;;;;;;1.43;0.40;;;15.10;99.90;;;;;;5089383;28;20174;-82
2021/09/26 04:26:35;;;;;;;1.40;0.63;;;15.20;99.90;;;;;;5088149;28;20205;-83
2021/09/26 04:29:01;;;;;;;0.20;0.20;;;15.20;99.90;;;;;;5090137;28;20652;-83
2021/09/26 04:31:26;;;;;;;0.20;0.20;;;15.20;99.90;;;;;;5090651;28;20186;-82
2021/09/26 04:33:52;;;;;;;0.20;0.20;;;15.00;99.90;;;;;;5096908;28;20188;-83
2021/09/26 04:36:18;;;;;;;0.50;0.40;;;14.90;99.90;;;;;;5086494;28;20206;-82
2021/09/26 04:38:43;;;;;;;0.60;0.30;;;14.70;99.90;;;;;;5091978;28;20176;-83
2021/09/26 04:41:09;;;;;;;0.63;0.63;;;14.70;99.90;;;;;;5083158;28;20229;-83
2021/09/26 04:43:34;;;;;;;0.80;0.70;;;14.70;99.90;;;;;;5092183;28;20296;-82
2021/09/26 04:46:00;;;;;;;0.50;0.50;;;14.60;99.90;;;;;;5085646;28;20772;-82
2021/09/26 04:48:26;;;;;;;0.80;0.80;;;14.60;99.90;;;;;;5089654;28;20667;-82
2021/09/26 04:50:51;;;;;;;2.40;0.70;;;14.50;99.90;;;;;;5089610;28;20184;-83
2021/09/26 04:53:17;;;;;;;0.40;0.40;;;14.40;99.90;;;;;;5085283;28;20576;-83
2021/09/26 04:55:43;;;;;;;0.70;0.70;;;14.40;99.90;;;;;;5099192;28;20193;-82
2021/09/26 04:58:10;;;;;;;0.33;0.33;;;14.30;99.90;;;;;;5092867;28;20252;-82
2021/09/26 05:00:36;;;;;;;0.60;0.60;;;14.20;99.90;;;;;;5089009;28;20233;-82
2021/09/26 05:03:01;;;;;;;0.67;0.60;;;14.10;99.90;;;;;;5086832;28;20189;-83
2021/09/26 05:05:27;;;;;;;0.40;0.40;;;14.10;99.90;;;;;;5087091;28;20180;-83
2021/09/26 05:07:52;;;;;;;1.50;0.60;;;14.20;99.90;;;;;;5089608;28;20283;-82
2021/09/26 05:10:18;;;;;;;0.60;0.50;;;14.20;99.90;;;;;;5091070;28;20224;-83
2021/09/26 05:12:44;;;;;;;0.90;0.47;;;14.30;99.90;;;;;;5086351;28;20287;-83
2021/09/26 05:15:10;;;;;;;0.40;0.40;;;14.40;99.90;;;;;;5094106;28;20207;-83
2021/09/26 05:17:36;;;;;;;0.23;0.23;;;14.40;99.90;;;;;;5095775;28;20198;-82
2021/09/26 05:20:03;;;;;;;0.30;0.30;;;14.50;99.90;;;;;;5083678;28;20184;-83
2021/09/26 05:22:28;;;;;;;0.70;0.70;;;14.40;99.90;;;;;;5094647;28;20279;-82
2021/09/26 05:24:54;;;;;;;0.30;0.30;;;14.30;99.90;;;;;;5081852;28;20196;-82
2021/09/26 05:27:21;;;;;;;0.50;0.40;;;14.30;99.90;;;;;;5095666;28;20191;-83
2021/09/26 05:29:46;;;;;;;0.40;0.40;;;14.30;99.90;;;;;;5097874;28;20248;-83
2021/09/26 05:32:12;;;;;;;0.50;0.50;;;14.40;99.90;;;;;;5087897;28;20260;-84
2021/09/26 05:34:38;;;;;;;0.43;0.43;;;14.50;99.90;;;;;;5097181;28;20181;-83
2021/09/26 05:37:04;;;;;;;1.03;0.30;;;14.50;99.90;;;;;;5092615;28;20173;-83
2021/09/26 05:39:31;;;;;;;0.53;0.53;;;14.40;99.90;;;;;;5096188;28;20538;-83
2021/09/26 05:41:58;;;;;;;0.57;0.57;;;14.50;99.90;;;;;;5098443;28;20222;-82
2021/09/26 05:44:24;;;;;;;0.20;0.20;;;14.50;99.90;;;;;;5092631;28;20533;-82
2021/09/26 05:46:50;;;;;;;0.67;0.50;;;14.50;99.90;;;;;;5090970;28;20202;-82
2021/09/26 05:49:15;;;;;;;0.37;0.20;;;14.50;99.90;;;;;;5093379;28;20281;-82
2021/09/26 05:51:41;;;;;;;0.33;0.33;;;14.50;99.90;;;;;;5096290;28;20670;-82
2021/09/26 05:54:07;;;;;;;0.77;0.40;;;14.50;99.90;;;;;;5086829;28;20220;-83
2021/09/26 05:56:32;;;;;;;0.43;0.33;;;14.50;99.90;;;;;;5095314;28;20677;-83
2021/09/26 05:58:58;;;;;;;1.07;1.00;;;14.50;99.90;;;;;;5090426;28;20178;-82
2021/09/26 06:01:23;;;;;;;0.40;0.40;;;14.40;99.90;;;;;;5093550;28;20184;-83
2021/09/26 06:03:49;;;;;;;0.60;0.50;;;14.50;99.90;;;;;;5089013;28;20182;-84
2021/09/26 06:06:14;;;;;;;0.70;0.70;;;14.60;99.90;;;;;;5091553;28;20259;-84
2021/09/26 06:08:40;;;;;;;0.40;0.40;;;14.70;99.90;;;;;;5088393;28;20188;-82
2021/09/26 06:11:06;;;;;;;1.43;1.13;;;14.70;99.90;;;;;;5098637;28;20211;-83
2021/09/26 06:13:32;;;;;;;1.03;0.90;;;14.70;99.90;;;;;;5093230;28;20214;-82
2021/09/26 06:15:59;;;;;;;0.33;0.33;;;14.70;99.90;;;;;;5100664;28;20292;-82
2021/09/26 06:18:25;;;;;;;0.77;0.60;;;14.70;99.90;;;;;;5091934;28;20166;-82
2021/09/26 06:20:51;;;;;;;0.40;0.40;;;14.80;99.90;;;;;;5091021;28;20523;-83
2021/09/26 06:23:17;;;;;;;0.50;0.50;;;15.00;99.90;;;;;;5091296;28;20205;-83
2021/09/26 06:25:43;;;;;;;0.40;0.40;;;15.30;99.90;;;;;;5087687;28;20188;-82
2021/09/26 06:28:09;;;;;;;0.50;0.50;;;15.50;99.90;;;;;;5090558;28;20240;-82
2021/09/26 06:30:36;;;;;;;0.57;0.57;;;15.80;99.90;;;;;;5095731;28;20241;-83
2021/09/26 06:33:03;;;;;;;0.53;0.50;;;16.00;99.90;;;;;;5089467;28;20198;-84
2021/09/26 06:35:29;;;;;;;0.67;0.60;;;16.20;99.90;;;;;;5097539;28;20834;-83
2021/09/26 06:37:55;;;;;;;0.50;0.50;;;16.30;99.90;;;;;;5082056;28;20254;-82
2021/09/26 06:40:21;;;;;;;1.83;1.60;;;16.40;99.90;;;;;;5088843;28;20180;-83
2021/09/26 06:42:47;;;;;;;0.90;0.90;;;16.40;99.90;;;;;;5089395;28;20284;-83
2021/09/26 06:45:13;;;;;;;0.93;0.87;;;16.40;99.90;;;;;;5087791;28;20188;-83
2021/09/26 06:47:39;;;;;;;0.80;0.50;;;16.60;99.90;;;;;;5088510;28;20233;-83
2021/09/26 06:50:06;;;;;;;1.13;0.80;;;16.80;99.90;;;;;;5090777;28;20270;-83
2021/09/26 06:52:32;;;;;;;0.33;0.33;;;17.10;99.90;;;;;;5088121;28;20215;-83
2021/09/26 06:54:58;;;;;;;0.73;0.70;;;17.30;99.90;;;;;;5098936;28;20683;-83
2021/09/26 06:57:23;;;;;;;1.10;0.93;;;17.50;99.90;;;;;;5090153;28;20183;-82
2021/09/26 06:59:49;;;;;;;0.40;0.40;;;17.60;99.90;;;;;;5098101;28;20207;-83
2021/09/26 07:02:21;;;;;;;2.20;1.43;;;17.60;99.90;;;;;;5091794;28;20288;-83
2021/09/26 07:04:47;;;;;;;1.27;0.63;;;17.70;99.90;;;;;;5093989;28;20181;-83
2021/09/26 07:07:13;;;;;;;0.80;0.80;;;17.90;99.90;;;;;;5085702;28;20192;-82
2021/09/26 07:09:40;;;;;;;0.50;0.50;;;18.00;99.90;;;;;;5093782;28;20188;-84
2021/09/26 07:12:06;;;;;;;0.70;0.50;;;18.10;99.90;;;;;;5087321;28;20558;-83
2021/09/26 07:14:32;;;;;;;1.23;0.83;;;18.00;99.90;;;;;;5092621;28;20188;-83
2021/09/26 07:16:57;;;;;;;0.57;0.57;;;18.10;99.90;;;;;;5096380;28;20169;-83
2021/09/26 07:19:23;;;;;;;0.80;0.73;;;18.30;99.90;;;;;;5081761;28;20180;-83
2021/09/26 07:21:49;;;;;;;1.63;0.80;;;18.40;99.90;;;;;;5098668;28;20202;-83
2021/09/26 07:24:14;;;;;;;0.63;0.50;;;18.60;99.90;;;;;;5088921;28;20176;-83
2021/09/26 07:26:40;;;;;;;1.20;1.10;;;18.60;99.90;;;;;;5087813;28;20220;-83
2021/09/26 07:29:06;;;;;;;0.50;0.50;;;18.80;99.90;;;;;;5088423;28;20275;-83
2021/09/26 07:31:33;;;;;;;1.67;0.60;;;19.00;99.90;;;;;;5089446;28;20193;-83
2021/09/26 07:33:58;;;;;;;0.63;0.53;;;19.10;99.90;;;;;;5103296;28;20308;-83
2021/09/26 07:36:24;;;;;;;0.50;0.50;;;19.30;99.90;;;;;;5088464;28;20250;-84
2021/09/26 07:38:49;;;;;;;1.43;1.33;;;19.50;99.90;;;;;;5085735;28;20179;-84
2021/09/26 07:41:15;;;;;;;1.50;1.40;;;19.60;99.90;;;;;;5090390;28;20173;-83
2021/09/26 07:43:41;;;;;;;1.10;1.00;;;19.80;99.90;;;;;;5093065;28;20665;-83
2021/09/26 07:46:06;;;;;;;0.93;0.80;;;19.90;99.90;;;;;;5085796;28;20737;-83
2021/09/26 07:48:32;;;;;;;0.30;0.30;;;20.00;99.90;;;;;;5092601;28;20177;-83
2021/09/26 07:50:58;;;;;;;1.00;1.00;;;20.20;99.90;;;;;;5093835;28;20226;-84
2021/09/26 07:53:23;;;;;;;1.17;0.53;;;20.50;99.90;;;;;;5090474;28;20204;-83
2021/09/26 07:55:51;;;;;;;0.80;0.70;;;20.50;99.90;;;;;;5096052;28;20675;-83
2021/09/26 07:58:16;;;;;;;0.30;0.30;;;20.70;99.90;;;;;;5089267;28;20172;-83
2021/09/26 08:00:42;;;;;;;0.50;0.50;;;20.90;99.90;;;;;;5087308;28;20184;-83
2021/09/26 08:03:07;;;;;;;0.60;0.53;;;21.10;99.90;;;;;;5087171;28;20185;-84
2021/09/26 08:05:33;;;;;;;1.50;0.90;;;21.30;99.90;;;;;;5087546;28;20682;-83
2021/09/26 08:07:59;;;;;;;0.80;0.73;;;21.30;99.90;;;;;;5088466;28;20195;-83
2021/09/26 08:10:24;;;;;;;1.20;0.57;;;21.20;99.90;;;;;;5090390;28;20569;-83
2021/09/26 08:12:50;;;;;;;0.43;0.43;;;21.10;99.90;;;;;;5087391;28;20201;-85
2021/09/26 08:15:16;;;;;;;1.60;0.70;;;21.00;99.90;;;;;;5091018;28;20207;-84
2021/09/26 08:17:41;;;;;;;1.37;0.80;;;21.00;99.90;;;;;;5095092;28;20309;-83
2021/09/26 08:20:08;;;;;;;4.57;0.83;;;20.90;99.90;;;;;;5084322;28;20184;-84
2021/09/26 08:22:33;;;;;;;1.40;1.00;;;20.80;99.90;;;;;;5093361;28;20207;-83
2021/09/26 08:25:00;;;;;;;1.57;1.27;;;20.80;99.90;;;;;;5078041;28;20172;-83
2021/09/26 08:27:26;;;;;;;0.73;0.73;;;21.10;99.90;;;;;;5095654;28;20249;-84
2021/09/26 08:29:52;;;;;;;0.80;0.80;;;21.40;99.90;;;;;;5081406;28;20186;-83
2021/09/26 08:32:17;;;;;;;1.30;1.20;;;21.50;99.90;;;;;;5081645;28;20233;-84
2021/09/26 08:34:43;;;;;;;0.70;0.70;;;21.70;99.90;;;;;;5092767;28;20191;-83
2021/09/26 08:37:08;;;;;;;0.60;0.60;;;21.80;99.90;;;;;;5087859;28;20717;-83
2021/09/26 08:39:34;;;;;;;2.07;0.73;;;21.90;99.90;;;;;;5091416;28;20176;-83
2021/09/26 08:42:00;;;;;;;0.53;0.53;;;21.70;99.90;;;;;;5094297;28;20199;-83
2021/09/26 08:44:28;;;;;;;0.87;0.80;;;21.50;99.90;;;;;;5090365;28;20181;-83
2021/09/26 08:46:58;;;;;;;0.70;0.70;;;21.30;99.90;;;;;;5087271;28;20230;-83
2021/09/26 08:49:24;;;;;;;1.37;0.80;;;21.30;99.90;;;;;;5086293;28;20264;-83
2021/09/26 08:51:52;;;;;;;0.70;0.70;;;21.40;99.90;;;;;;5089583;28;20624;-84
2021/09/26 08:54:18;;;;;;;0.70;0.70;;;21.50;99.90;;;;;;5085425;28;20246;-84
2021/09/26 08:56:44;;;;;;;2.80;1.40;;;21.60;99.90;;;;;;5090390;28;20209;-84
2021/09/26 08:59:11;;;;;;;1.40;1.27;;;21.90;99.90;;;;;;5085413;28;20208;-84
2021/09/26 09:01:37;;;;;;;0.90;0.80;;;22.10;99.90;;;;;;5092586;28;20188;-84
2021/09/26 09:04:04;;;;;;;1.63;0.80;;;22.30;99.90;;;;;;5084720;28;20241;-84
2021/09/26 09:06:43;;;;;;;0.77;0.70;;;22.20;99.90;;;;;;5083897;28;20180;-83
2021/09/26 09:09:15;;;;;;;0.53;0.53;;;22.20;99.90;;;;;;5087871;28;20266;-83
2021/09/26 09:11:43;;;;;;;2.27;2.03;;;22.40;99.90;;;;;;5083628;28;20649;-84
2021/09/26 09:14:09;;;;;;;1.73;1.53;;;22.30;99.90;;;;;;5086995;28;20176;-83
2021/09/26 09:16:35;;;;;;;1.20;1.10;;;22.30;99.90;;;;;;5083764;28;20200;-84
2021/09/26 09:19:01;;;;;;;0.67;0.60;;;22.30;99.90;;;;;;5084299;28;20181;-84
2021/09/26 09:21:28;;;;;;;1.27;1.20;;;22.40;99.90;;;;;;5084290;28;20194;-83
2021/09/26 09:24:25;;;;;;;2.33;0.60;;;22.30;99.90;;;;;;5084983;28;20195;-84
2021/09/26 09:26:52;;;;;;;0.70;0.70;;;22.20;99.90;;;;;;5082389;28;20212;-83
2021/09/26 09:29:23;;;;;;;0.93;0.77;;;22.20;99.90;;;;;;5086264;28;20176;-84
2021/09/26 09:31:53;;;;;;;0.70;0.70;;;22.10;99.90;;;;;;5084502;28;20677;-83
2021/09/26 09:34:28;;;;;;;1.13;1.03;;;22.10;99.90;;;;;;5087033;28;20237;-84
2021/09/26 09:37:14;;;;;;;0.40;0.40;;;22.00;99.90;;;;;;5085396;28;20172;-84
2021/09/26 09:39:42;;;;;;;1.10;0.97;;;22.10;99.90;;;;;;5085980;28;20267;-83
2021/09/26 09:42:19;;;;;;;2.73;1.03;;;22.10;99.90;;;;;;5086648;28;20188;-83
2021/09/26 09:44:46;;;;;;;0.70;0.60;;;22.00;99.90;;;;;;5096658;28;20185;-83
2021/09/26 09:47:12;;;;;;;0.50;0.50;;;22.00;99.90;;;;;;5088612;28;20180;-84
2021/09/26 09:49:52;;;;;;;1.67;0.93;;;21.90;99.90;;;;;;5084569;28;20205;-83
2021/09/26 09:52:18;;;;;;;2.23;1.03;;;21.80;99.90;;;;;;5085013;28;20208;-83
2021/09/26 09:54:49;;;;;;;1.13;1.03;;;21.80;99.90;;;;;;5083002;28;20173;-83
2021/09/26 09:57:19;;;;;;;2.20;1.60;;;21.70;99.90;;;;;;5087013;28;20189;-84
2021/09/26 09:59:46;;;;;;;1.23;1.13;;;21.70;99.90;;;;;;5083674;28;20178;-83
2021/09/26 10:02:13;;;;;;;1.83;0.90;;;21.60;99.90;;;;;;5086925;28;20226;-83
2021/09/26 10:04:44;;;;;;;1.17;1.00;;;21.40;99.90;;;;;;5089621;28;20180;-84
2021/09/26 10:07:27;;;;;;;1.00;0.90;;;21.20;99.90;;;;;;5087735;28;20185;-83
2021/09/26 10:09:54;;;;;;;0.70;0.70;;;21.10;99.90;;;;;;5092304;28;20634;-83
2021/09/26 10:12:29;;;;;;;0.60;0.60;;;21.00;99.90;;;;;;5084007;28;20197;-84
2021/09/26 10:14:57;;;;;;;0.90;0.90;;;21.00;99.90;;;;;;5092449;28;20195;-83
2021/09/26 10:17:23;;;;;;;0.80;0.80;;;21.00;99.90;;;;;;5103231;28;20180;-84
2021/09/26 10:19:49;;;;;;;0.70;0.60;;;21.00;99.90;;;;;;5086120;28;20185;-83
2021/09/26 10:22:15;;;;;;;1.10;1.00;;;21.10;99.90;;;;;;5089496;28;20208;-83
2021/09/26 10:24:44;;;;;;;0.63;0.60;;;21.10;99.90;;;;;;5089848;28;20176;-83
2021/09/26 10:27:13;;;;;;;0.60;0.60;;;21.10;99.90;;;;;;5093304;28;20665;-83
2021/09/26 10:29:41;;;;;;;0.80;0.80;;;20.80;99.90;;;;;;5091847;28;20188;-83
2021/09/26 10:32:08;;;;;;;0.97;0.97;;;20.90;99.90;;;;;;5089203;28;20201;-83
2021/09/26 10:34:35;;;;;;;0.90;0.90;;;21.10;99.90;;;;;;5093086;28;20184;-83
2021/09/26 10:37:12;;;;;;;0.70;0.70;;;21.10;99.90;;;;;;5093039;28;20165;-83
2021/09/26 10:39:40;;;;;;;1.07;1.03;;;21.20;99.90;;;;;;5087151;28;20198;-84
2021/09/26 10:42:09;;;;;;;1.10;0.97;;;21.00;99.90;;;;;;5091479;28;20598;-83
2021/09/26 10:44:47;;;;;;;1.00;0.87;;;21.20;99.90;;;;;;5089978;28;20641;-82
2021/09/26 10:47:45;;;;;;;0.77;0.67;;;21.40;99.90;;;;;;5093486;28;20180;-84
2021/09/26 10:50:15;;;;;;;1.03;1.03;;;21.40;99.90;;;;;;5094958;28;20192;-83
2021/09/26 10:52:50;;;;;;;0.70;0.70;;;21.60;99.90;;;;;;5090545;28;20235;-84
2021/09/26 10:55:21;;;;;;;0.30;0.30;;;21.70;99.90;;;;;;5087429;28;20204;-83
2021/09/26 10:58:07;;;;;;;1.80;0.80;;;21.70;99.90;;;;;;5090917;28;20608;-83
2021/09/26 11:01:01;;;;;;;0.43;0.43;;;21.80;99.90;;;;;;5079376;28;20220;-83
2021/09/26 11:03:41;;;;;;;0.60;0.60;;;21.80;99.90;;;;;;5100700;28;20264;-83
2021/09/26 11:06:28;;;;;;;0.80;0.63;;;21.60;99.90;;;;;;5099272;28;20206;-83
2021/09/26 11:09:00;;;;;;;0.80;0.80;;;21.40;99.90;;;;;;5092066;28;20202;-83
2021/09/26 11:11:50;;;;;;;0.50;0.50;;;21.30;99.90;;;;;;5087753;28;20184;-84
2021/09/26 11:14:16;;;;;;;1.00;1.00;;;21.10;99.90;;;;;;5074505;28;20555;-84
2021/09/26 11:16:58;;;;;;;0.47;0.47;;;20.90;99.90;;;;;;5096082;28;20208;-83
2021/09/26 11:19:28;;;;;;;0.53;0.53;;;20.80;99.90;;;;;;5107898;28;20499;-84
2021/09/26 11:22:05;;;;;;;0.77;0.73;;;20.60;99.90;;;;;;5108828;28;20184;-84
2021/09/26 11:24:39;;;;;;;0.50;0.50;;;20.40;99.90;;;;;;5101771;28;20592;-82
2021/09/26 11:27:14;;;;;;;0.87;0.60;;;20.30;99.90;;;;;;5089687;28;20206;-83
2021/09/26 11:29:41;;;;;;;0.27;0.27;;;20.20;99.90;;;;;;5096562;28;20176;-84
2021/09/26 11:32:31;;;;;;;0.83;0.73;;;20.10;99.90;;;;;;5099004;28;20192;-83
2021/09/26 11:35:02;;;;;;;0.80;0.80;;;20.10;99.90;;;;;;5076734;28;20207;-83
2021/09/26 11:37:37;;;;;;;0.80;0.80;;;20.00;99.90;;;;;;5087783;28;20213;-83
2021/09/26 11:40:07;;;;;;;0.60;0.60;;;20.00;99.90;;;;;;5090215;28;20176;-82
2021/09/26 11:42:35;;;;;;;1.40;1.00;;;19.90;99.90;;;;;;5089217;28;20214;-84
2021/09/26 11:45:04;;;;;;;0.47;0.47;;;19.90;99.90;;;;;;5092229;28;20204;-83
2021/09/26 11:47:30;;;;;;;1.00;0.87;;;19.90;99.90;;;;;;5092438;28;20559;-82
2021/09/26 11:50:07;;;;;;;0.77;0.77;;;20.00;99.90;;;;;;5088375;28;20180;-84
2021/09/26 11:52:39;;;;;;;0.87;0.63;;;20.00;99.90;;;;;;5088861;28;20200;-83
2021/09/26 11:55:06;;;;;;;0.60;0.60;;;20.00;99.90;;;;;;5094286;28;20200;-82
2021/09/26 11:57:32;;;;;;;1.20;1.00;;;20.10;99.90;;;;;;5088868;28;20230;-83
2021/09/26 11:59:57;;;;;;;1.27;1.17;;;20.20;99.90;;;;;;5089384;28;20172;-83
2021/09/26 12:02:23;;;;;;;1.10;1.00;;;20.10;99.90;;;;;;5086294;28;20671;-84
2021/09/26 12:04:48;;;;;;;0.83;0.83;;;20.10;99.90;;;;;;5092040;28;20191;-82
2021/09/26 12:07:14;;;;;;;0.90;0.80;;;20.10;99.90;;;;;;5083080;28;20189;-84
2021/09/26 12:09:41;;;;;;;0.73;0.73;;;20.00;99.90;;;;;;5090586;28;20549;-83
2021/09/26 12:12:16;;;;;;;0.70;0.70;;;20.00;99.90;;;;;;5082322;28;20205;-83
2021/09/26 12:14:45;;;;;;;0.53;0.53;;;20.00;99.90;;;;;;5089022;28;20245;-83
2021/09/26 12:17:12;;;;;;;0.63;0.63;;;20.00;99.90;;;;;;5093565;28;20184;-82
2021/09/26 12:19:38;;;;;;;0.57;0.57;;;19.50;99.90;;;;;;5089250;28;20552;-83
2021/09/26 12:22:10;;;;;;;1.10;0.97;;;19.20;99.90;;;;;;5093149;28;20350;-83
2021/09/26 12:24:54;;;;;;;1.60;1.50;;;19.00;99.90;;;;;;5092181;28;20187;-83
2021/09/26 12:27:31;;;;;;;6.83;1.00;;;19.00;99.90;;;;;;5086738;28;20219;-83
2021/09/26 12:29:58;;;;;;;1.70;1.37;;;18.90;99.90;;;;;;5087174;28;20252;-83
2021/09/26 12:32:27;;;;;;;0.93;0.87;;;18.80;99.90;;;;;;5090678;28;20197;-82
2021/09/26 12:34:54;;;;;;;1.90;1.00;;;18.60;99.90;;;;;;5098135;28;20178;-83
2021/09/26 12:37:23;;;;;;;0.90;0.87;;;18.60;99.90;;;;;;5089854;28;20244;-82
2021/09/26 12:39:54;;;;;;;1.17;0.83;;;18.80;99.90;;;;;;5090501;28;20265;-83
2021/09/26 12:42:23;;;;;;;3.20;1.20;;;18.80;99.90;;;;;;5088740;28;20740;-83
2021/09/26 12:44:49;;;;;;;1.07;0.90;;;18.70;99.90;;;;;;5085735;28;20182;-82
2021/09/26 12:47:18;;;;;;;1.37;0.90;;;18.70;99.90;;;;;;5091128;28;20173;-83
2021/09/26 12:49:46;;;;;;;1.30;1.13;;;18.70;99.90;;;;;;5084167;28;20173;-83
2021/09/26 12:52:22;;;;;;;0.83;0.80;;;18.50;99.90;;;;;;5090192;28;20204;-83
2021/09/26 12:54:53;;;;;;;0.50;0.50;;;18.60;99.90;;;;;;5091823;28;20179;-83